Aidablu — IBWX — position and weather

sailwx.info

Track history (hours):
 
Tides and Currents Weather Stations Pressure Air Temp Water Temp Dewpoint Dewpoint Depression Visibility Wind Speed Wind Dir Waves Ship Positions

Aidablu

Last reported at 2016-Dec-02 07:29 UTC. Time now 2016-Dec-02 18:06 UTC.
Position N 28°28' W 016°15'.

Length 252 m; draft 7.3 m.

Type: Ship. MMSI: 247282500.

Date/timePositionNaut miles runAvg speedWind from/ knotsBaromVisibWave heightAir tempDewpointWater temp
2016-Dec-02 07:29N 28°28' W 016°15'3 3.5
2016-Dec-02 06:33N 28°27' W 016°11'1313.1
2016-Dec-02 05:33N 28°21' W 015°58'1313.0
2016-Dec-02 04:33N 28°17' W 015°44'1313.2
2016-Dec-02 03:33N 28°16' W 015°29'1413.6
2016-Dec-02 02:33N 28°13' W 015°14'1413.7
2016-Dec-02 01:33N 28°08' W 014°60'1413.6
2016-Dec-02 00:33N 28°03' W 014°45'1413.7
2016-Dec-01 23:33N 27°59' W 014°31'1313.4
2016-Dec-01 22:33N 27°59' W 014°15'37 1.9
2016-Dec-01 03:17N 28°30' W 013°51'0 0.0
2016-Dec-01 00:09N 28°30' W 013°51'0 0.0
2016-Nov-30 21:26N 28°30' W 013°51'5 4.8
2016-Nov-30 20:20N 28°29' W 013°45'1113.6
2016-Nov-30 19:32N 28°39' W 013°40'1413.9
2016-Nov-30 18:33N 28°51' W 013°33'7 6.8
2016-Nov-30 17:34N 28°58' W 013°32'0 0.0
2016-Nov-30 08:21N 28°58' W 013°32'0 0.0
2016-Nov-30 07:32N 28°58' W 013°32'8 7.9
2016-Nov-30 06:31N 28°53' W 013°39'1312.9
2016-Nov-30 05:33N 28°48' W 013°52'  
2016-Nov-27 03:15N 29°02' W 015°34'812.1
2016-Nov-27 02:33N 28°54' W 015°31'1211.9
2016-Nov-27 01:33N 28°44' W 015°24'1111.0
2016-Nov-27 00:33N 28°33' W 015°22'1211.7
2016-Nov-26 23:33N 28°21' W 015°19'1212.2
2016-Nov-26 22:34N 28°10' W 015°22'3 2.9
2016-Nov-26 21:32N 28°08' W 015°25'0 0.0
2016-Nov-26 20:32N 28°08' W 015°25'0 0.0
2016-Nov-26 19:32N 28°08' W 015°25'0 0.0
2016-Nov-26 18:31N 28°08' W 015°25'0 0.0
2016-Nov-26 17:28N 28°08' W 015°25'0 0.0
2016-Nov-26 16:33N 28°08' W 015°25'0 0.0
2016-Nov-26 15:33N 28°08' W 015°25'0 0.0
2016-Nov-26 14:32N 28°08' W 015°25'0 0.0
2016-Nov-26 13:32N 28°08' W 015°25'0 0.0
2016-Nov-26 12:32N 28°08' W 015°25'0 0.0
2016-Nov-26 11:28N 28°08' W 015°25'0 0.0
2016-Nov-26 10:31N 28°08' W 015°25'0 0.0
2016-Nov-26 09:33N 28°08' W 015°25'0 0.0
2016-Nov-26 08:33N 28°08' W 015°25'0 0.0
2016-Nov-26 07:32N 28°08' W 015°25'0 0.0
2016-Nov-26 06:32N 28°08' W 015°25'0 0.0
2016-Nov-26 05:32N 28°08' W 015°25'0 0.0
2016-Nov-26 04:31N 28°08' W 015°25'0 0.0
2016-Nov-26 03:31N 28°08' W 015°25'0 0.0
2016-Nov-26 02:33N 28°08' W 015°25'0 0.0
2016-Nov-26 01:33N 28°08' W 015°25'0 0.2
2016-Nov-26 00:34N 28°08' W 015°25'5 4.9
2016-Nov-25 23:33N 28°13' W 015°23'1414.0
2016-Nov-25 22:34N 28°15' W 015°39'1613.8
2016-Nov-25 21:25N 28°18' W 015°56'1313.9
2016-Nov-25 20:30N 28°25' W 016°09'1 0.1
2016-Nov-25 06:26N 28°26' W 016°08'1113.0
2016-Nov-25 05:33N 28°22' W 015°56'1313.0
2016-Nov-25 04:33N 28°18' W 015°42'1313.2
2016-Nov-25 03:34N 28°17' W 015°27'1313.1
2016-Nov-25 02:34N 28°13' W 015°13'1313.2
2016-Nov-25 01:33N 28°08' W 014°59'1313.4
2016-Nov-25 00:34N 28°03' W 014°45'4012.5
2016-Nov-24 21:20N 28°07' W 013°59'36 1.4
2016-Nov-23 19:30N 28°39' W 013°40'1313.7
2016-Nov-23 18:33N 28°51' W 013°34'7 1.2
2016-Nov-23 12:33N 28°58' W 013°32'0 0.0
2016-Nov-23 09:17N 28°58' W 013°32'0 0.1
2016-Nov-23 07:32N 28°58' W 013°32'3 3.5
2016-Nov-23 06:33N 28°55' W 013°34'16 5.3
2016-Nov-23 03:32N 28°48' W 013°51'  
Track history (hours):
 
Tides and Currents Weather Stations Pressure Air Temp Water Temp Dewpoint Dewpoint Depression Visibility Wind Speed Wind Dir Waves Ship Positions

Aidablu

Last reported at 2016-Dec-02 07:29 UTC. Time now 2016-Dec-02 18:06 UTC.
Position N 28°28' W 016°15'.

Length 252 m; draft 7.3 m.

Type: Ship. MMSI: 247282500.

Date/timePositionNaut miles runAvg speedWind from/ knotsBaromVisibWave heightAir tempDewpointWater temp
2016-Dec-02 07:29N 28°28' W 016°15'3 3.5
2016-Dec-02 06:33N 28°27' W 016°11'1313.1
2016-Dec-02 05:33N 28°21' W 015°58'1313.0
2016-Dec-02 04:33N 28°17' W 015°44'1313.2
2016-Dec-02 03:33N 28°16' W 015°29'1413.6
2016-Dec-02 02:33N 28°13' W 015°14'1413.7
2016-Dec-02 01:33N 28°08' W 014°60'1413.6
2016-Dec-02 00:33N 28°03' W 014°45'1413.7
2016-Dec-01 23:33N 27°59' W 014°31'1313.4
2016-Dec-01 22:33N 27°59' W 014°15'37 1.9
2016-Dec-01 03:17N 28°30' W 013°51'0 0.0
2016-Dec-01 00:09N 28°30' W 013°51'0 0.0
2016-Nov-30 21:26N 28°30' W 013°51'5 4.8
2016-Nov-30 20:20N 28°29' W 013°45'1113.6
2016-Nov-30 19:32N 28°39' W 013°40'1413.9
2016-Nov-30 18:33N 28°51' W 013°33'7 6.8
2016-Nov-30 17:34N 28°58' W 013°32'0 0.0
2016-Nov-30 08:21N 28°58' W 013°32'0 0.0
2016-Nov-30 07:32N 28°58' W 013°32'8 7.9
2016-Nov-30 06:31N 28°53' W 013°39'1312.9
2016-Nov-30 05:33N 28°48' W 013°52'  
2016-Nov-27 03:15N 29°02' W 015°34'812.1
2016-Nov-27 02:33N 28°54' W 015°31'1211.9
2016-Nov-27 01:33N 28°44' W 015°24'1111.0
2016-Nov-27 00:33N 28°33' W 015°22'1211.7
2016-Nov-26 23:33N 28°21' W 015°19'1212.2
2016-Nov-26 22:34N 28°10' W 015°22'3 2.9
2016-Nov-26 21:32N 28°08' W 015°25'0 0.0
2016-Nov-26 20:32N 28°08' W 015°25'0 0.0
2016-Nov-26 19:32N 28°08' W 015°25'0 0.0
2016-Nov-26 18:31N 28°08' W 015°25'0 0.0
2016-Nov-26 17:28N 28°08' W 015°25'0 0.0
2016-Nov-26 16:33N 28°08' W 015°25'0 0.0
2016-Nov-26 15:33N 28°08' W 015°25'0 0.0
2016-Nov-26 14:32N 28°08' W 015°25'0 0.0
2016-Nov-26 13:32N 28°08' W 015°25'0 0.0
2016-Nov-26 12:32N 28°08' W 015°25'0 0.0
2016-Nov-26 11:28N 28°08' W 015°25'0 0.0
2016-Nov-26 10:31N 28°08' W 015°25'0 0.0
2016-Nov-26 09:33N 28°08' W 015°25'0 0.0
2016-Nov-26 08:33N 28°08' W 015°25'0 0.0
2016-Nov-26 07:32N 28°08' W 015°25'0 0.0
2016-Nov-26 06:32N 28°08' W 015°25'0 0.0
2016-Nov-26 05:32N 28°08' W 015°25'0 0.0
2016-Nov-26 04:31N 28°08' W 015°25'0 0.0
2016-Nov-26 03:31N 28°08' W 015°25'0 0.0
2016-Nov-26 02:33N 28°08' W 015°25'0 0.0
2016-Nov-26 01:33N 28°08' W 015°25'0 0.2
2016-Nov-26 00:34N 28°08' W 015°25'5 4.9
2016-Nov-25 23:33N 28°13' W 015°23'1414.0
2016-Nov-25 22:34N 28°15' W 015°39'1613.8
2016-Nov-25 21:25N 28°18' W 015°56'1313.9
2016-Nov-25 20:30N 28°25' W 016°09'1 0.1
2016-Nov-25 06:26N 28°26' W 016°08'1113.0
2016-Nov-25 05:33N 28°22' W 015°56'1313.0
2016-Nov-25 04:33N 28°18' W 015°42'1313.2
2016-Nov-25 03:34N 28°17' W 015°27'1313.1
2016-Nov-25 02:34N 28°13' W 015°13'1313.2
2016-Nov-25 01:33N 28°08' W 014°59'1313.4
2016-Nov-25 00:34N 28°03' W 014°45'4012.5
2016-Nov-24 21:20N 28°07' W 013°59'36 1.4
2016-Nov-23 19:30N 28°39' W 013°40'1313.7
2016-Nov-23 18:33N 28°51' W 013°34'7 1.2
2016-Nov-23 12:33N 28°58' W 013°32'0 0.0
2016-Nov-23 09:17N 28°58' W 013°32'0 0.1
2016-Nov-23 07:32N 28°58' W 013°32'3 3.5
2016-Nov-23 06:33N 28°55' W 013°34'16 5.3
2016-Nov-23 03:32N 28°48' W 013°51'  

Dump ship's entire track history